createdAt,value
2019-06-27T00:00:18.153Z,4.57
2019-06-27T00:02:45.121Z,4.77
2019-06-27T00:05:12.204Z,4.23
2019-06-27T00:07:39.180Z,4.03
2019-06-27T00:10:07.958Z,4.03
2019-06-27T00:12:34.955Z,4.20
2019-06-27T00:15:01.954Z,3.93
2019-06-27T00:17:28.925Z,4.30
2019-06-27T00:19:55.911Z,4.20
2019-06-27T00:22:22.934Z,3.80
2019-06-27T00:24:49.875Z,4.63
2019-06-27T00:27:16.828Z,4.00
2019-06-27T00:29:45.136Z,4.87
2019-06-27T00:32:12.154Z,4.90
2019-06-27T00:34:40.396Z,4.77
2019-06-27T00:37:07.361Z,4.60
2019-06-27T00:39:34.345Z,4.50
2019-06-27T00:42:01.313Z,5.00
2019-06-27T00:44:30.086Z,4.30
2019-06-27T00:46:57.082Z,4.93
2019-06-27T00:49:25.692Z,4.27
2019-06-27T00:51:52.675Z,5.37
2019-06-27T00:54:19.658Z,5.67
2019-06-27T00:56:46.614Z,5.37
2019-06-27T00:59:13.593Z,5.70
2019-06-27T01:01:40.582Z,5.00
2019-06-27T01:04:07.619Z,5.40
2019-06-27T01:06:34.659Z,5.17
2019-06-27T01:09:01.633Z,5.57
2019-06-27T01:11:28.929Z,5.40
2019-06-27T01:13:55.919Z,5.10
2019-06-27T01:16:23.094Z,5.20
2019-06-27T01:18:50.052Z,5.80
2019-06-27T01:21:16.991Z,5.40
2019-06-27T01:23:45.159Z,5.00
2019-06-27T01:26:12.370Z,5.70
2019-06-27T01:28:39.410Z,5.47
2019-06-27T01:31:06.514Z,5.27
2019-06-27T01:33:33.598Z,5.23
2019-06-27T01:36:00.571Z,5.63
2019-06-27T01:38:27.647Z,5.90
2019-06-27T01:40:54.612Z,5.53
2019-06-27T01:43:21.589Z,6.27
2019-06-27T01:45:52.415Z,5.60
2019-06-27T01:48:19.399Z,5.50
2019-06-27T01:50:46.382Z,5.57
2019-06-27T01:53:13.424Z,6.27
2019-06-27T01:55:40.385Z,5.77
2019-06-27T01:58:07.451Z,6.03
2019-06-27T02:00:34.404Z,6.60
2019-06-27T02:03:01.365Z,6.20
2019-06-27T02:05:28.369Z,6.90
2019-06-27T02:07:55.356Z,6.07
2019-06-27T02:10:22.325Z,6.43
2019-06-27T02:12:49.294Z,6.60
2019-06-27T02:15:22.085Z,7.07
2019-06-27T02:17:48.180Z,7.07
2019-06-27T02:20:16.072Z,6.67
2019-06-27T02:22:43.037Z,6.43
2019-06-27T02:25:10.305Z,7.43
2019-06-27T02:27:37.253Z,6.80
2019-06-27T02:30:07.227Z,6.40
2019-06-27T02:32:35.100Z,6.63
2019-06-27T02:35:02.561Z,7.10
2019-06-27T02:37:29.534Z,7.40
2019-06-27T02:39:56.515Z,6.43
2019-06-27T02:42:23.450Z,6.90
2019-06-27T02:44:50.406Z,7.10
2019-06-27T02:47:17.433Z,6.70
2019-06-27T02:49:44.382Z,6.07
2019-06-27T02:52:11.334Z,6.77
2019-06-27T02:54:38.321Z,6.70
2019-06-27T02:57:05.283Z,7.13
2019-06-27T02:59:32.254Z,7.17
2019-06-27T03:01:59.338Z,7.13
2019-06-27T03:04:26.317Z,6.23
2019-06-27T03:06:53.321Z,6.23
2019-06-27T03:09:22.107Z,6.20
2019-06-27T03:11:49.118Z,7.70
2019-06-27T03:14:16.110Z,6.93
2019-06-27T03:16:44.622Z,7.03
2019-06-27T03:19:11.585Z,7.80
2019-06-27T03:21:38.586Z,7.33
2019-06-27T03:24:05.551Z,6.60
2019-06-27T03:26:32.622Z,6.07
2019-06-27T03:28:59.611Z,6.33
2019-06-27T03:31:26.606Z,6.67
2019-06-27T03:33:53.589Z,5.80
2019-06-27T03:36:22.488Z,5.53
2019-06-27T03:38:49.706Z,5.63
2019-06-27T03:41:16.696Z,5.80
2019-06-27T03:43:43.658Z,5.47
2019-06-27T03:46:10.687Z,5.30
2019-06-27T03:48:37.693Z,6.40
2019-06-27T03:51:04.663Z,5.50
2019-06-27T03:53:32.389Z,5.00
2019-06-27T03:55:59.380Z,4.87
2019-06-27T03:58:32.126Z,5.20
2019-06-27T04:00:59.111Z,5.20
2019-06-27T04:03:26.094Z,6.03
2019-06-27T04:05:53.076Z,5.10
2019-06-27T04:08:20.054Z,5.27
2019-06-27T04:10:47.015Z,5.03
2019-06-27T04:13:13.964Z,5.47
2019-06-27T04:15:42.090Z,5.63
2019-06-27T04:18:09.060Z,5.63
2019-06-27T04:20:36.166Z,5.40
2019-06-27T04:23:03.241Z,5.80
2019-06-27T04:25:30.187Z,5.90
2019-06-27T04:28:00.050Z,5.33
2019-06-27T04:30:26.080Z,5.13
2019-06-27T04:32:54.164Z,5.80
2019-06-27T04:35:21.142Z,4.87
2019-06-27T04:37:48.162Z,5.70
2019-06-27T04:40:16.911Z,4.97
2019-06-27T04:42:43.883Z,5.17
2019-06-27T04:45:10.888Z,5.83
2019-06-27T04:47:37.904Z,5.30
2019-06-27T04:50:05.365Z,4.60
2019-06-27T04:52:32.431Z,4.50
2019-06-27T04:55:03.046Z,5.37
2019-06-27T04:57:28.607Z,5.33
2019-06-27T04:59:55.583Z,5.37
2019-06-27T05:02:22.549Z,5.27
2019-06-27T05:04:49.595Z,4.83
2019-06-27T05:07:17.018Z,4.70
2019-06-27T05:09:43.997Z,5.53
2019-06-27T05:12:10.970Z,5.67
2019-06-27T05:14:38.017Z,5.23
2019-06-27T05:17:05.270Z,5.87
2019-06-27T05:19:32.244Z,4.87
2019-06-27T05:21:59.376Z,5.40
2019-06-27T05:24:26.349Z,5.40
2019-06-27T05:26:53.337Z,5.33
2019-06-27T05:29:20.363Z,5.37
2019-06-27T05:31:47.369Z,5.50
2019-06-27T05:34:15.385Z,5.53
2019-06-27T05:36:42.393Z,4.83
2019-06-27T05:39:10.277Z,6.07
2019-06-27T05:41:37.309Z,5.60
2019-06-27T05:44:04.275Z,5.37
2019-06-27T05:46:31.267Z,5.53
2019-06-27T05:48:58.899Z,5.30
2019-06-27T05:51:25.922Z,4.83
2019-06-27T05:53:52.902Z,5.40
2019-06-27T05:56:20.263Z,5.70
2019-06-27T05:58:47.302Z,6.90
2019-06-27T06:01:14.408Z,5.67
2019-06-27T06:03:41.880Z,6.53
2019-06-27T06:06:08.882Z,5.80
2019-06-27T06:08:35.850Z,5.50
2019-06-27T06:11:03.042Z,6.00
2019-06-27T06:13:31.696Z,5.87
2019-06-27T06:16:00.966Z,5.47
2019-06-27T06:18:27.613Z,6.03
2019-06-27T06:20:54.606Z,6.60
2019-06-27T06:23:21.589Z,6.07
2019-06-27T06:25:48.631Z,5.70
2019-06-27T06:28:17.645Z,6.27
2019-06-27T06:30:45.363Z,5.30
2019-06-27T06:33:12.680Z,5.93
2019-06-27T06:35:39.648Z,5.87
2019-06-27T06:38:06.632Z,6.53
2019-06-27T06:40:33.671Z,7.10
2019-06-27T06:43:00.897Z,7.23
2019-06-27T06:45:27.859Z,7.40
2019-06-27T06:47:54.834Z,6.90
2019-06-27T06:50:23.497Z,6.63
2019-06-27T06:52:50.729Z,7.20
2019-06-27T06:55:17.778Z,6.70
2019-06-27T06:57:44.803Z,7.57
2019-06-27T07:00:12.321Z,7.43
2019-06-27T07:02:39.346Z,6.63
2019-06-27T07:05:06.625Z,7.37
2019-06-27T07:07:33.631Z,7.27
2019-06-27T07:10:00.753Z,6.50
2019-06-27T07:12:27.725Z,7.70
2019-06-27T07:14:54.722Z,7.90
2019-06-27T07:17:21.741Z,6.20
2019-06-27T07:19:48.722Z,6.97
2019-06-27T07:22:15.701Z,8.10
2019-06-27T07:24:42.668Z,6.87
2019-06-27T07:27:09.674Z,6.60
2019-06-27T07:29:36.643Z,6.90
2019-06-27T07:32:03.650Z,5.37
2019-06-27T07:34:30.657Z,6.10
2019-06-27T07:36:57.654Z,6.13
2019-06-27T07:39:26.371Z,6.57
2019-06-27T07:41:53.346Z,6.47
2019-06-27T07:44:21.557Z,5.43
2019-06-27T07:46:48.631Z,6.10
2019-06-27T07:49:15.633Z,5.70
2019-06-27T07:51:42.612Z,6.43
2019-06-27T07:54:09.595Z,6.03
2019-06-27T07:56:36.568Z,5.87
2019-06-27T07:59:03.639Z,6.27
2019-06-27T08:01:35.654Z,7.13
2019-06-27T08:03:59.522Z,5.73
2019-06-27T08:06:26.512Z,6.87
2019-06-27T08:08:53.493Z,6.70
2019-06-27T08:11:20.470Z,7.73
2019-06-27T08:13:47.463Z,6.57
2019-06-27T08:16:14.490Z,7.57
2019-06-27T08:18:42.786Z,7.00
2019-06-27T08:21:09.788Z,6.80
2019-06-27T08:23:41.629Z,8.13
2019-06-27T08:26:05.774Z,6.97
2019-06-27T08:28:32.774Z,7.20
2019-06-27T08:30:59.760Z,7.17
2019-06-27T08:33:26.779Z,7.27
2019-06-27T08:35:53.801Z,6.67
2019-06-27T08:38:20.790Z,7.07
2019-06-27T08:40:47.779Z,6.00
2019-06-27T08:43:14.923Z,5.83
2019-06-27T08:45:43.010Z,6.10
2019-06-27T08:48:10.019Z,5.10
2019-06-27T08:50:36.971Z,6.47
2019-06-27T08:53:04.251Z,5.93
2019-06-27T08:55:31.526Z,5.87
2019-06-27T08:57:58.496Z,5.17
2019-06-27T09:00:25.504Z,5.80
2019-06-27T09:02:52.467Z,5.60
2019-06-27T09:05:19.581Z,5.37
2019-06-27T09:07:46.603Z,5.27
2019-06-27T09:10:13.698Z,5.10
2019-06-27T09:12:40.817Z,5.50
2019-06-27T09:15:08.331Z,5.50
2019-06-27T09:17:35.423Z,5.50
2019-06-27T09:20:02.353Z,5.53
2019-06-27T09:22:29.538Z,4.50
2019-06-27T09:24:56.536Z,4.57
2019-06-27T09:27:23.539Z,4.40
2019-06-27T09:29:51.937Z,5.47
2019-06-27T09:32:25.327Z,4.83
2019-06-27T09:34:47.908Z,4.43
2019-06-27T09:37:14.948Z,3.60
2019-06-27T09:39:41.940Z,4.07
2019-06-27T09:42:08.991Z,3.80
2019-06-27T09:44:36.334Z,4.37
2019-06-27T09:47:04.555Z,4.93
2019-06-27T09:49:31.532Z,5.87
2019-06-27T09:51:58.527Z,4.67
2019-06-27T09:54:25.546Z,4.60
2019-06-27T09:56:52.552Z,5.00
2019-06-27T09:59:19.517Z,4.73
2019-06-27T10:01:46.529Z,5.33
2019-06-27T10:04:13.547Z,5.20
2019-06-27T10:06:40.698Z,4.13
2019-06-27T10:09:07.737Z,4.40
2019-06-27T10:11:34.750Z,5.10
2019-06-27T10:14:01.719Z,3.97
2019-06-27T10:16:30.902Z,4.60
2019-06-27T10:18:57.888Z,5.00
2019-06-27T10:24:33.354Z,4.33
2019-06-27T10:27:00.457Z,4.83
2019-06-27T10:29:27.443Z,4.67
2019-06-27T10:31:54.425Z,4.73
2019-06-27T10:34:21.411Z,4.10
2019-06-27T10:36:48.396Z,3.40
2019-06-27T10:39:15.450Z,4.47
2019-06-27T10:41:42.523Z,3.97
2019-06-27T10:44:09.517Z,4.93
2019-06-27T10:46:36.462Z,4.40
2019-06-27T10:49:06.238Z,4.73
2019-06-27T10:51:33.452Z,4.23
2019-06-27T10:54:00.409Z,4.37
2019-06-27T10:56:39.598Z,5.20
2019-06-27T10:59:03.731Z,4.93
2019-06-27T11:01:30.729Z,5.00
2019-06-27T11:03:57.707Z,4.03
2019-06-27T11:06:24.690Z,3.87
2019-06-27T11:08:51.795Z,4.20
2019-06-27T11:11:18.751Z,6.43
2019-06-27T11:13:58.266Z,4.70
2019-06-27T11:16:14.776Z,4.97
2019-06-27T11:18:41.755Z,4.50
2019-06-27T11:21:08.766Z,4.80
2019-06-27T11:23:35.737Z,5.57
2019-06-27T11:26:02.718Z,4.87
2019-06-27T11:28:29.688Z,4.00
2019-06-27T11:30:56.679Z,4.10
2019-06-27T11:33:32.683Z,4.40
2019-06-27T11:35:52.587Z,3.90
2019-06-27T11:38:21.604Z,3.97
2019-06-27T11:40:48.685Z,3.90
2019-06-27T11:43:15.660Z,4.20
2019-06-27T11:45:42.854Z,3.80
2019-06-27T11:48:09.823Z,4.40
2019-06-27T11:50:36.893Z,4.27
2019-06-27T11:53:03.924Z,3.80
2019-06-27T11:55:30.883Z,4.60
2019-06-27T11:57:58.007Z,3.70
2019-06-27T12:00:25.012Z,3.70
2019-06-27T12:02:53.361Z,3.77
2019-06-27T12:05:20.347Z,4.10
2019-06-27T12:07:47.521Z,3.17
2019-06-27T12:10:14.996Z,4.70
2019-06-27T12:12:41.975Z,4.40
2019-06-27T12:15:09.375Z,3.60
2019-06-27T12:17:36.553Z,3.97
2019-06-27T12:20:05.171Z,3.70
2019-06-27T12:22:32.178Z,3.70
2019-06-27T12:24:59.151Z,3.83
2019-06-27T12:27:26.165Z,3.40
2019-06-27T12:29:53.182Z,3.20
2019-06-27T12:32:20.182Z,3.33
2019-06-27T12:34:47.440Z,3.20
2019-06-27T12:37:14.456Z,3.17
2019-06-27T12:39:42.324Z,3.83
2019-06-27T12:42:09.337Z,3.27
2019-06-27T12:44:36.348Z,3.23
2019-06-27T12:47:03.427Z,3.50
2019-06-27T12:49:50.066Z,3.53
2019-06-27T12:52:00.456Z,3.30
2019-06-27T12:54:27.427Z,3.40
2019-06-27T12:56:54.463Z,3.10
2019-06-27T12:59:21.458Z,3.17
2019-06-27T13:01:48.676Z,4.70
2019-06-27T13:04:23.376Z,3.80
2019-06-27T13:06:44.623Z,3.10
2019-06-27T13:09:11.656Z,2.90
2019-06-27T13:11:44.684Z,2.90
2019-06-27T13:14:26.869Z,3.60
2019-06-27T13:16:53.895Z,3.23
2019-06-27T13:19:20.904Z,3.50
2019-06-27T13:21:47.906Z,3.00
2019-06-27T13:24:16.482Z,2.93
2019-06-27T13:26:43.458Z,2.70
2019-06-27T13:29:11.589Z,2.73
2019-06-27T13:31:39.726Z,3.80
2019-06-27T13:34:06.844Z,4.13
2019-06-27T13:36:33.866Z,2.70
2019-06-27T13:39:01.124Z,3.63
2019-06-27T13:41:28.176Z,3.60
2019-06-27T13:43:55.205Z,3.37
2019-06-27T13:46:22.174Z,3.13
2019-06-27T13:48:49.174Z,2.83
2019-06-27T13:51:16.231Z,2.90
2019-06-27T13:53:43.229Z,2.87
2019-06-27T13:56:10.244Z,3.00
2019-06-27T13:58:37.254Z,3.13
2019-06-27T14:01:04.758Z,2.97
2019-06-27T14:03:47.834Z,2.87
2019-06-27T14:06:00.670Z,2.93
2019-06-27T14:08:27.739Z,2.97
2019-06-27T14:10:54.723Z,3.23
2019-06-27T14:13:21.754Z,3.50
2019-06-27T14:15:48.845Z,2.77
2019-06-27T14:18:19.041Z,3.27
2019-06-27T14:20:44.844Z,2.97
2019-06-27T14:23:11.842Z,2.47
2019-06-27T14:25:38.848Z,3.50
2019-06-27T14:28:05.854Z,2.17
2019-06-27T14:30:32.845Z,2.30
2019-06-27T14:32:59.931Z,3.00
2019-06-27T14:35:26.927Z,3.03
2019-06-27T14:37:53.966Z,2.73
2019-06-27T14:40:22.441Z,2.73
2019-06-27T14:42:49.597Z,3.00
2019-06-27T14:45:16.746Z,2.67
2019-06-27T14:47:43.782Z,2.63
2019-06-27T14:50:10.874Z,3.70
2019-06-27T14:52:37.890Z,3.17
2019-06-27T14:55:05.638Z,3.03
2019-06-27T14:57:32.654Z,3.00
2019-06-27T14:59:59.799Z,3.40
2019-06-27T15:02:26.802Z,3.00
2019-06-27T15:04:53.835Z,2.90
2019-06-27T15:07:20.789Z,3.00
2019-06-27T15:09:47.904Z,2.20
2019-06-27T15:12:14.918Z,2.23
2019-06-27T15:14:42.845Z,3.03
2019-06-27T15:17:09.840Z,3.23
2019-06-27T15:19:36.878Z,2.87
2019-06-27T15:22:03.875Z,2.73
2019-06-27T15:24:30.874Z,2.57
2019-06-27T15:26:57.852Z,2.60
2019-06-27T15:29:24.845Z,2.40
2019-06-27T15:31:51.853Z,2.70
2019-06-27T15:34:18.836Z,3.17
2019-06-27T15:36:45.841Z,3.07
2019-06-27T15:39:12.946Z,2.63
2019-06-27T15:41:39.911Z,3.07
2019-06-27T15:44:06.897Z,3.40
2019-06-27T15:46:33.951Z,3.13
2019-06-27T15:49:00.941Z,4.33
2019-06-27T15:51:27.976Z,2.80
2019-06-27T15:53:54.969Z,2.77
2019-06-27T15:56:21.942Z,2.60
2019-06-27T15:58:48.958Z,2.70
2019-06-27T16:01:15.929Z,2.80
2019-06-27T16:03:42.941Z,3.60
2019-06-27T16:06:14.519Z,2.50
2019-06-27T16:08:38.938Z,3.13
2019-06-27T16:11:06.129Z,2.93
2019-06-27T16:13:33.250Z,2.43
2019-06-27T16:16:00.242Z,2.97
2019-06-27T16:18:27.242Z,2.40
2019-06-27T16:21:03.508Z,2.53
2019-06-27T16:23:30.735Z,2.70
2019-06-27T16:25:57.904Z,2.57
2019-06-27T16:28:27.167Z,2.50
2019-06-27T16:30:53.816Z,2.83
2019-06-27T16:33:20.797Z,2.43
2019-06-27T16:36:26.422Z,2.60
2019-06-27T16:38:53.601Z,2.87
2019-06-27T16:41:20.605Z,2.60
2019-06-27T16:43:47.590Z,2.83
2019-06-27T16:46:14.604Z,2.80
2019-06-27T16:48:41.570Z,2.90
2019-06-27T16:51:08.581Z,2.97
2019-06-27T16:53:35.605Z,2.70
2019-06-27T16:56:02.673Z,2.63
2019-06-27T16:58:31.450Z,3.43
2019-06-27T17:00:58.472Z,2.53
2019-06-27T17:03:25.572Z,3.40
2019-06-27T17:05:52.776Z,3.10
2019-06-27T17:08:19.729Z,3.43
2019-06-27T17:10:46.748Z,3.37
2019-06-27T17:13:13.845Z,3.17
2019-06-27T17:15:40.993Z,2.83
2019-06-27T17:18:08.005Z,4.13
2019-06-27T17:20:35.044Z,3.27
2019-06-27T17:23:05.298Z,3.00
2019-06-27T17:25:31.009Z,3.43
2019-06-27T17:27:58.053Z,3.00
2019-06-27T17:30:25.057Z,3.40
2019-06-27T17:32:52.112Z,3.17
2019-06-27T17:35:20.200Z,3.33
2019-06-27T17:37:47.321Z,3.73
2019-06-27T17:40:16.435Z,2.83
2019-06-27T17:42:43.409Z,2.80
2019-06-27T17:45:10.513Z,2.77
2019-06-27T17:47:37.509Z,3.07
2019-06-27T17:50:04.840Z,3.27
2019-06-27T17:52:31.837Z,2.83
2019-06-27T17:54:58.803Z,3.10
2019-06-27T17:57:25.794Z,3.27
2019-06-27T17:59:52.814Z,2.97
2019-06-27T18:02:19.863Z,3.00
2019-06-27T18:04:59.214Z,3.30
2019-06-27T18:07:26.241Z,2.70
2019-06-27T18:09:53.376Z,2.90
2019-06-27T18:12:20.388Z,3.13
2019-06-27T18:14:47.396Z,3.10
2019-06-27T18:17:14.405Z,3.10
2019-06-27T18:19:41.578Z,3.03
2019-06-27T18:22:08.685Z,2.87
2019-06-27T18:24:35.708Z,3.07
2019-06-27T18:27:02.698Z,3.07
2019-06-27T18:29:29.826Z,3.10
2019-06-27T18:31:56.821Z,2.80
2019-06-27T18:34:23.820Z,3.53
2019-06-27T18:36:50.985Z,3.40
2019-06-27T18:39:18.024Z,3.87
2019-06-27T18:41:47.096Z,3.80
2019-06-27T18:44:14.242Z,3.37
2019-06-27T18:46:41.274Z,3.87
2019-06-27T18:49:08.329Z,3.43
2019-06-27T18:51:35.316Z,4.07
2019-06-27T18:54:02.287Z,3.70
2019-06-27T18:56:29.288Z,3.50
2019-06-27T18:58:56.353Z,4.37
2019-06-27T19:01:23.384Z,4.30
2019-06-27T19:03:50.487Z,3.90
2019-06-27T19:06:17.611Z,3.60
2019-06-27T19:08:44.659Z,3.90
2019-06-27T19:11:11.664Z,4.00
2019-06-27T19:13:38.681Z,4.60
2019-06-27T19:16:05.698Z,3.80
2019-06-27T19:18:48.858Z,4.27
2019-06-27T19:21:21.766Z,3.70
2019-06-27T19:23:58.168Z,4.37
2019-06-27T19:26:26.687Z,4.47
2019-06-27T19:28:53.823Z,4.10
2019-06-27T19:31:22.762Z,3.20
2019-06-27T19:33:49.822Z,3.53
2019-06-27T19:36:16.812Z,3.80
2019-06-27T19:38:43.810Z,4.60
2019-06-27T19:41:10.805Z,4.10
2019-06-27T19:43:38.005Z,3.57
2019-06-27T19:46:06.464Z,3.93
2019-06-27T19:48:33.544Z,3.67
2019-06-27T19:51:00.672Z,3.43
2019-06-27T19:53:27.716Z,3.67
2019-06-27T19:55:56.689Z,3.10
2019-06-27T19:58:23.726Z,3.70
2019-06-27T20:00:50.727Z,3.47
2019-06-27T20:03:19.004Z,3.87
2019-06-27T20:05:46.065Z,3.60
2019-06-27T20:08:19.455Z,3.40
2019-06-27T20:10:42.176Z,3.47
2019-06-27T20:13:09.204Z,3.37
2019-06-27T20:15:36.268Z,3.33
2019-06-27T20:18:04.292Z,3.73
2019-06-27T20:20:31.265Z,3.83
2019-06-27T20:22:58.243Z,3.33
2019-06-27T20:25:25.218Z,3.87
2019-06-27T20:27:52.309Z,3.43
2019-06-27T20:30:21.288Z,3.43
2019-06-27T20:32:48.461Z,3.63
2019-06-27T20:35:15.558Z,3.80
2019-06-27T20:37:42.860Z,3.97
2019-06-27T20:40:10.950Z,3.37
2019-06-27T20:42:39.671Z,3.40
2019-06-27T20:45:07.361Z,4.00
2019-06-27T20:47:34.382Z,3.93
2019-06-27T20:50:02.881Z,3.50
2019-06-27T20:52:30.144Z,4.20
2019-06-27T20:54:57.197Z,4.63
2019-06-27T20:57:24.387Z,3.80
2019-06-27T20:59:51.433Z,4.90
2019-06-27T21:02:18.532Z,4.30
2019-06-27T21:04:45.655Z,4.27
2019-06-27T21:07:12.628Z,4.37
2019-06-27T21:09:39.660Z,3.70
2019-06-27T21:12:06.728Z,4.50
2019-06-27T21:14:35.027Z,4.40
2019-06-27T21:17:02.072Z,4.33
2019-06-27T21:19:29.121Z,4.77
2019-06-27T21:21:58.813Z,5.30
2019-06-27T21:24:25.234Z,5.67
2019-06-27T21:26:52.244Z,5.30
2019-06-27T21:29:19.315Z,5.07
2019-06-27T21:31:46.429Z,5.40
2019-06-27T21:34:13.417Z,6.33
2019-06-27T21:36:40.517Z,6.10
2019-06-27T21:39:08.241Z,6.03
2019-06-27T21:41:35.456Z,5.77
2019-06-27T21:44:02.590Z,5.80
2019-06-27T21:46:29.609Z,5.77
2019-06-27T21:48:56.621Z,5.93
2019-06-27T21:51:23.564Z,6.10
2019-06-27T21:53:50.573Z,6.73
2019-06-27T21:56:18.605Z,6.10
2019-06-27T21:58:45.609Z,6.17
2019-06-27T22:01:12.829Z,6.07
2019-06-27T22:03:39.840Z,6.00
2019-06-27T22:06:06.871Z,5.80
2019-06-27T22:08:33.856Z,5.97
2019-06-27T22:11:00.867Z,6.13
2019-06-27T22:13:31.137Z,6.13
2019-06-27T22:15:58.128Z,6.70
2019-06-27T22:18:25.269Z,5.87
2019-06-27T22:20:52.294Z,6.23
2019-06-27T22:23:20.156Z,6.17
2019-06-27T22:25:47.282Z,6.57
2019-06-27T22:28:14.264Z,5.43
2019-06-27T22:30:41.263Z,5.83
2019-06-27T22:33:08.288Z,5.60
2019-06-27T22:35:35.333Z,6.07
2019-06-27T22:38:20.879Z,5.77
2019-06-27T22:41:06.362Z,5.77
2019-06-27T22:43:51.336Z,5.97
2019-06-27T22:46:37.629Z,6.67
2019-06-27T22:49:06.031Z,6.20
2019-06-27T22:51:51.696Z,6.03
2019-06-27T22:54:20.312Z,5.67
2019-06-27T22:56:47.325Z,5.17
2019-06-27T22:59:14.363Z,5.70
2019-06-27T23:01:41.349Z,5.40
2019-06-27T23:04:08.363Z,5.50
2019-06-27T23:06:36.927Z,5.93
2019-06-27T23:09:04.816Z,6.40
2019-06-27T23:11:31.835Z,6.80
2019-06-27T23:13:59.001Z,5.80
2019-06-27T23:16:26.431Z,5.50
2019-06-27T23:18:53.450Z,5.50
2019-06-27T23:21:20.540Z,5.00
2019-06-27T23:23:47.549Z,5.70
2019-06-27T23:26:14.540Z,5.40
2019-06-27T23:28:41.562Z,5.13
2019-06-27T23:31:08.578Z,5.37
2019-06-27T23:33:35.697Z,5.80
2019-06-27T23:36:03.860Z,5.57
2019-06-27T23:38:30.845Z,6.30
2019-06-27T23:40:58.025Z,5.97
2019-06-27T23:43:25.041Z,5.37
2019-06-27T23:45:51.993Z,6.00
2019-06-27T23:48:20.195Z,5.97
2019-06-27T23:50:47.351Z,5.40
2019-06-27T23:53:14.370Z,5.77
2019-06-27T23:55:41.364Z,5.53
2019-06-27T23:58:08.505Z,5.77
